sensor_id;sensor_type;location;lat;lon;timestamp;temperature;humidity
13464;DHT22;6804;48.774;9.174;2023-09-18T00:00:50;23.00;99.90
13464;DHT22;6804;48.774;9.174;2023-09-18T00:03:18;23.00;99.90
13464;DHT22;6804;48.774;9.174;2023-09-18T00:05:46;23.10;99.90
13464;DHT22;6804;48.774;9.174;2023-09-18T00:08:19;23.10;99.90
13464;DHT22;6804;48.774;9.174;2023-09-18T00:10:49;23.10;99.90
13464;DHT22;6804;48.774;9.174;2023-09-18T00:13:18;23.10;99.90
13464;DHT22;6804;48.774;9.174;2023-09-18T00:15:49;23.10;99.90
13464;DHT22;6804;48.774;9.174;2023-09-18T00:18:18;23.00;99.90
13464;DHT22;6804;48.774;9.174;2023-09-18T00:20:47;23.00;99.90
13464;DHT22;6804;48.774;9.174;2023-09-18T00:23:22;22.90;99.90
13464;DHT22;6804;48.774;9.174;2023-09-18T00:25:52;22.90;99.90
13464;DHT22;6804;48.774;9.174;2023-09-18T00:28:20;22.80;99.90
13464;DHT22;6804;48.774;9.174;2023-09-18T00:30:48;22.80;99.90
13464;DHT22;6804;48.774;9.174;2023-09-18T00:33:18;22.60;99.90
13464;DHT22;6804;48.774;9.174;2023-09-18T00:35:53;22.50;99.90
13464;DHT22;6804;48.774;9.174;2023-09-18T00:38:24;22.50;99.90
13464;DHT22;6804;48.774;9.174;2023-09-18T00:40:51;22.50;99.90
13464;DHT22;6804;48.774;9.174;2023-09-18T00:43:22;22.50;99.90
13464;DHT22;6804;48.774;9.174;2023-09-18T00:45:51;22.50;99.90
13464;DHT22;6804;48.774;9.174;2023-09-18T00:48:20;22.60;99.90
13464;DHT22;6804;48.774;9.174;2023-09-18T00:50:50;22.60;99.90
13464;DHT22;6804;48.774;9.174;2023-09-18T00:53:22;22.60;99.90
13464;DHT22;6804;48.774;9.174;2023-09-18T00:55:57;22.60;99.90
13464;DHT22;6804;48.774;9.174;2023-09-18T00:58:28;22.50;99.90
13464;DHT22;6804;48.774;9.174;2023-09-18T01:00:56;22.50;99.90
13464;DHT22;6804;48.774;9.174;2023-09-18T01:03:34;22.50;99.90
13464;DHT22;6804;48.774;9.174;2023-09-18T01:06:04;22.50;99.90
13464;DHT22;6804;48.774;9.174;2023-09-18T01:08:35;22.50;99.90
13464;DHT22;6804;48.774;9.174;2023-09-18T01:11:17;22.50;99.90
13464;DHT22;6804;48.774;9.174;2023-09-18T01:13:54;22.60;99.90
13464;DHT22;6804;48.774;9.174;2023-09-18T01:16:27;22.70;99.90
13464;DHT22;6804;48.774;9.174;2023-09-18T01:19:00;22.80;99.90
13464;DHT22;6804;48.774;9.174;2023-09-18T01:21:30;22.80;99.90
13464;DHT22;6804;48.774;9.174;2023-09-18T01:23:59;22.80;99.90
13464;DHT22;6804;48.774;9.174;2023-09-18T01:26:27;22.90;99.90
13464;DHT22;6804;48.774;9.174;2023-09-18T01:28:57;23.00;99.90
13464;DHT22;6804;48.774;9.174;2023-09-18T01:31:24;23.00;99.90
13464;DHT22;6804;48.774;9.174;2023-09-18T01:33:52;23.00;99.90
13464;DHT22;6804;48.774;9.174;2023-09-18T01:36:24;23.00;99.90
13464;DHT22;6804;48.774;9.174;2023-09-18T01:38:52;23.00;99.90
13464;DHT22;6804;48.774;9.174;2023-09-18T01:41:22;23.00;99.90
13464;DHT22;6804;48.774;9.174;2023-09-18T01:43:50;23.00;99.90
13464;DHT22;6804;48.774;9.174;2023-09-18T01:46:18;23.10;99.90
13464;DHT22;6804;48.774;9.174;2023-09-18T01:48:46;23.10;99.90
13464;DHT22;6804;48.774;9.174;2023-09-18T01:51:14;23.10;99.90
13464;DHT22;6804;48.774;9.174;2023-09-18T01:53:45;23.10;99.90
13464;DHT22;6804;48.774;9.174;2023-09-18T01:56:12;23.00;99.90
13464;DHT22;6804;48.774;9.174;2023-09-18T01:58:46;23.10;99.90
13464;DHT22;6804;48.774;9.174;2023-09-18T02:01:13;23.10;99.90
13464;DHT22;6804;48.774;9.174;2023-09-18T02:03:43;23.10;99.90
13464;DHT22;6804;48.774;9.174;2023-09-18T02:06:14;23.10;99.90
13464;DHT22;6804;48.774;9.174;2023-09-18T02:08:41;23.10;99.90
13464;DHT22;6804;48.774;9.174;2023-09-18T02:11:16;23.20;99.90
13464;DHT22;6804;48.774;9.174;2023-09-18T02:13:45;23.20;99.90
13464;DHT22;6804;48.774;9.174;2023-09-18T02:16:14;23.20;99.90
13464;DHT22;6804;48.774;9.174;2023-09-18T02:18:41;23.10;99.90
13464;DHT22;6804;48.774;9.174;2023-09-18T02:21:09;23.10;99.90
13464;DHT22;6804;48.774;9.174;2023-09-18T02:23:36;23.10;99.90
13464;DHT22;6804;48.774;9.174;2023-09-18T02:26:04;23.00;99.90
13464;DHT22;6804;48.774;9.174;2023-09-18T02:28:33;22.90;99.90
13464;DHT22;6804;48.774;9.174;2023-09-18T02:31:05;22.90;99.90
13464;DHT22;6804;48.774;9.174;2023-09-18T02:33:33;22.90;99.90
13464;DHT22;6804;48.774;9.174;2023-09-18T02:36:03;22.90;99.90
13464;DHT22;6804;48.774;9.174;2023-09-18T02:38:31;22.80;99.90
13464;DHT22;6804;48.774;9.174;2023-09-18T02:40:59;22.80;99.90
13464;DHT22;6804;48.774;9.174;2023-09-18T02:43:35;22.80;99.90
13464;DHT22;6804;48.774;9.174;2023-09-18T02:46:08;22.80;99.90
13464;DHT22;6804;48.774;9.174;2023-09-18T02:48:36;22.80;99.90
13464;DHT22;6804;48.774;9.174;2023-09-18T02:51:03;22.70;99.90
13464;DHT22;6804;48.774;9.174;2023-09-18T02:53:33;22.60;99.90
13464;DHT22;6804;48.774;9.174;2023-09-18T02:56:00;22.60;99.90
13464;DHT22;6804;48.774;9.174;2023-09-18T02:58:30;22.60;99.90
13464;DHT22;6804;48.774;9.174;2023-09-18T03:01:01;22.60;99.90
13464;DHT22;6804;48.774;9.174;2023-09-18T03:03:33;22.50;99.90
13464;DHT22;6804;48.774;9.174;2023-09-18T03:06:01;22.50;99.90
13464;DHT22;6804;48.774;9.174;2023-09-18T03:08:32;22.50;99.90
13464;DHT22;6804;48.774;9.174;2023-09-18T03:11:03;22.50;99.90
13464;DHT22;6804;48.774;9.174;2023-09-18T03:13:43;22.50;99.90
13464;DHT22;6804;48.774;9.174;2023-09-18T03:16:14;22.50;99.90
13464;DHT22;6804;48.774;9.174;2023-09-18T03:18:44;22.50;99.90
13464;DHT22;6804;48.774;9.174;2023-09-18T03:21:13;22.50;99.90
13464;DHT22;6804;48.774;9.174;2023-09-18T03:23:40;22.50;99.90
13464;DHT22;6804;48.774;9.174;2023-09-18T03:26:11;22.40;99.90
13464;DHT22;6804;48.774;9.174;2023-09-18T03:28:39;22.50;99.90
13464;DHT22;6804;48.774;9.174;2023-09-18T03:31:06;22.40;99.90
13464;DHT22;6804;48.774;9.174;2023-09-18T03:33:35;22.40;99.90
13464;DHT22;6804;48.774;9.174;2023-09-18T03:36:07;22.40;99.90
13464;DHT22;6804;48.774;9.174;2023-09-18T03:38:36;22.40;99.90
13464;DHT22;6804;48.774;9.174;2023-09-18T03:41:04;22.50;99.90
13464;DHT22;6804;48.774;9.174;2023-09-18T03:43:34;22.50;99.90
13464;DHT22;6804;48.774;9.174;2023-09-18T03:46:05;22.50;99.90
13464;DHT22;6804;48.774;9.174;2023-09-18T03:48:32;22.50;99.90
13464;DHT22;6804;48.774;9.174;2023-09-18T03:51:03;22.50;99.90
13464;DHT22;6804;48.774;9.174;2023-09-18T03:53:36;22.40;99.90
13464;DHT22;6804;48.774;9.174;2023-09-18T03:56:04;22.40;99.90
13464;DHT22;6804;48.774;9.174;2023-09-18T03:58:39;22.30;99.90
13464;DHT22;6804;48.774;9.174;2023-09-18T04:01:17;22.30;99.90
13464;DHT22;6804;48.774;9.174;2023-09-18T04:04:04;22.30;99.90
13464;DHT22;6804;48.774;9.174;2023-09-18T04:06:37;22.30;99.90
13464;DHT22;6804;48.774;9.174;2023-09-18T04:09:09;22.30;99.90
13464;DHT22;6804;48.774;9.174;2023-09-18T04:11:38;22.20;99.90
13464;DHT22;6804;48.774;9.174;2023-09-18T04:14:09;22.20;99.90
13464;DHT22;6804;48.774;9.174;2023-09-18T04:16:36;22.20;99.90
13464;DHT22;6804;48.774;9.174;2023-09-18T04:19:05;22.30;99.90
13464;DHT22;6804;48.774;9.174;2023-09-18T04:21:34;22.20;99.90
13464;DHT22;6804;48.774;9.174;2023-09-18T04:24:10;22.20;99.90
13464;DHT22;6804;48.774;9.174;2023-09-18T04:26:38;22.30;99.90
13464;DHT22;6804;48.774;9.174;2023-09-18T04:29:08;22.30;99.90
13464;DHT22;6804;48.774;9.174;2023-09-18T04:31:39;22.20;99.90
13464;DHT22;6804;48.774;9.174;2023-09-18T04:34:07;22.20;99.90
13464;DHT22;6804;48.774;9.174;2023-09-18T04:36:36;22.10;99.90
13464;DHT22;6804;48.774;9.174;2023-09-18T04:39:05;22.10;99.90
13464;DHT22;6804;48.774;9.174;2023-09-18T04:41:38;22.10;99.90
13464;DHT22;6804;48.774;9.174;2023-09-18T04:44:08;22.00;99.90
13464;DHT22;6804;48.774;9.174;2023-09-18T04:46:38;22.00;99.90
13464;DHT22;6804;48.774;9.174;2023-09-18T04:49:08;22.00;99.90
13464;DHT22;6804;48.774;9.174;2023-09-18T04:51:37;22.00;99.90
13464;DHT22;6804;48.774;9.174;2023-09-18T04:54:06;22.00;99.90
13464;DHT22;6804;48.774;9.174;2023-09-18T04:56:41;22.10;99.90
13464;DHT22;6804;48.774;9.174;2023-09-18T04:59:08;22.10;99.90
13464;DHT22;6804;48.774;9.174;2023-09-18T05:01:40;22.10;99.90
13464;DHT22;6804;48.774;9.174;2023-09-18T05:04:09;22.10;99.90
13464;DHT22;6804;48.774;9.174;2023-09-18T05:06:40;22.20;99.90
13464;DHT22;6804;48.774;9.174;2023-09-18T05:09:09;22.20;99.90
13464;DHT22;6804;48.774;9.174;2023-09-18T05:11:40;22.20;99.90
13464;DHT22;6804;48.774;9.174;2023-09-18T05:14:09;22.20;99.90
13464;DHT22;6804;48.774;9.174;2023-09-18T05:16:55;22.20;99.90
13464;DHT22;6804;48.774;9.174;2023-09-18T05:19:23;22.20;99.90
13464;DHT22;6804;48.774;9.174;2023-09-18T05:21:51;22.20;99.90
13464;DHT22;6804;48.774;9.174;2023-09-18T05:24:18;22.20;99.90
13464;DHT22;6804;48.774;9.174;2023-09-18T05:27:01;22.20;99.90
13464;DHT22;6804;48.774;9.174;2023-09-18T05:29:29;22.20;99.90
13464;DHT22;6804;48.774;9.174;2023-09-18T05:31:57;22.20;99.90
13464;DHT22;6804;48.774;9.174;2023-09-18T05:34:25;22.20;99.90
13464;DHT22;6804;48.774;9.174;2023-09-18T05:36:53;22.10;99.90
13464;DHT22;6804;48.774;9.174;2023-09-18T05:39:21;22.10;99.90
13464;DHT22;6804;48.774;9.174;2023-09-18T05:41:50;22.10;99.90
13464;DHT22;6804;48.774;9.174;2023-09-18T05:44:20;22.10;99.90
13464;DHT22;6804;48.774;9.174;2023-09-18T05:46:50;22.10;99.90
13464;DHT22;6804;48.774;9.174;2023-09-18T05:49:20;22.10;99.90
13464;DHT22;6804;48.774;9.174;2023-09-18T05:51:49;22.10;99.90
13464;DHT22;6804;48.774;9.174;2023-09-18T05:54:17;22.10;99.90
13464;DHT22;6804;48.774;9.174;2023-09-18T05:56:51;22.10;99.90
13464;DHT22;6804;48.774;9.174;2023-09-18T05:59:21;22.10;99.90
13464;DHT22;6804;48.774;9.174;2023-09-18T06:01:51;22.00;99.90
13464;DHT22;6804;48.774;9.174;2023-09-18T06:04:19;22.10;99.90
13464;DHT22;6804;48.774;9.174;2023-09-18T06:06:50;22.00;99.90
13464;DHT22;6804;48.774;9.174;2023-09-18T06:09:21;22.00;99.90
13464;DHT22;6804;48.774;9.174;2023-09-18T06:11:52;22.00;99.90
13464;DHT22;6804;48.774;9.174;2023-09-18T06:14:22;22.00;99.90
13464;DHT22;6804;48.774;9.174;2023-09-18T06:16:51;22.00;99.90
13464;DHT22;6804;48.774;9.174;2023-09-18T06:19:19;22.00;99.90
13464;DHT22;6804;48.774;9.174;2023-09-18T06:21:49;22.00;99.90
13464;DHT22;6804;48.774;9.174;2023-09-18T06:24:19;22.00;99.90
13464;DHT22;6804;48.774;9.174;2023-09-18T06:26:50;22.00;99.90
13464;DHT22;6804;48.774;9.174;2023-09-18T06:29:21;22.00;99.90
13464;DHT22;6804;48.774;9.174;2023-09-18T06:31:50;21.90;99.90
13464;DHT22;6804;48.774;9.174;2023-09-18T06:34:20;21.90;99.90
13464;DHT22;6804;48.774;9.174;2023-09-18T06:36:50;21.90;99.90
13464;DHT22;6804;48.774;9.174;2023-09-18T06:39:37;21.90;99.90
13464;DHT22;6804;48.774;9.174;2023-09-18T06:42:05;21.80;99.90
13464;DHT22;6804;48.774;9.174;2023-09-18T06:44:34;21.80;99.90
13464;DHT22;6804;48.774;9.174;2023-09-18T06:47:02;21.80;99.90
13464;DHT22;6804;48.774;9.174;2023-09-18T06:49:33;21.80;99.90
13464;DHT22;6804;48.774;9.174;2023-09-18T06:52:01;21.80;99.90
13464;DHT22;6804;48.774;9.174;2023-09-18T06:54:31;21.80;99.90
13464;DHT22;6804;48.774;9.174;2023-09-18T06:57:03;21.80;99.90
13464;DHT22;6804;48.774;9.174;2023-09-18T06:59:35;21.70;99.90
13464;DHT22;6804;48.774;9.174;2023-09-18T07:02:04;21.70;99.90
13464;DHT22;6804;48.774;9.174;2023-09-18T07:04:34;21.70;99.90
13464;DHT22;6804;48.774;9.174;2023-09-18T07:07:02;21.70;99.90
13464;DHT22;6804;48.774;9.174;2023-09-18T07:09:31;21.70;99.90
13464;DHT22;6804;48.774;9.174;2023-09-18T07:11:59;21.70;99.90
13464;DHT22;6804;48.774;9.174;2023-09-18T07:14:34;21.70;99.90
13464;DHT22;6804;48.774;9.174;2023-09-18T07:17:02;21.80;99.90
13464;DHT22;6804;48.774;9.174;2023-09-18T07:19:32;21.80;99.90
13464;DHT22;6804;48.774;9.174;2023-09-18T07:22:00;21.80;99.90
13464;DHT22;6804;48.774;9.174;2023-09-18T07:24:49;21.90;99.90
13464;DHT22;6804;48.774;9.174;2023-09-18T07:27:22;21.80;99.90
13464;DHT22;6804;48.774;9.174;2023-09-18T07:29:57;21.90;99.90
13464;DHT22;6804;48.774;9.174;2023-09-18T07:32:27;21.90;99.90
13464;DHT22;6804;48.774;9.174;2023-09-18T07:34:55;21.90;99.90
13464;DHT22;6804;48.774;9.174;2023-09-18T07:37:24;21.90;99.90
13464;DHT22;6804;48.774;9.174;2023-09-18T07:39:52;21.90;99.90
13464;DHT22;6804;48.774;9.174;2023-09-18T07:42:24;21.90;99.90
13464;DHT22;6804;48.774;9.174;2023-09-18T07:44:54;21.90;99.90
13464;DHT22;6804;48.774;9.174;2023-09-18T07:47:22;21.90;99.90
13464;DHT22;6804;48.774;9.174;2023-09-18T07:49:53;21.90;99.90
13464;DHT22;6804;48.774;9.174;2023-09-18T07:52:22;22.00;99.90
13464;DHT22;6804;48.774;9.174;2023-09-18T07:54:50;21.90;99.90
13464;DHT22;6804;48.774;9.174;2023-09-18T07:57:23;22.00;99.90
13464;DHT22;6804;48.774;9.174;2023-09-18T07:59:55;22.00;99.90
13464;DHT22;6804;48.774;9.174;2023-09-18T08:02:26;22.00;99.90
13464;DHT22;6804;48.774;9.174;2023-09-18T08:04:58;22.00;99.90
13464;DHT22;6804;48.774;9.174;2023-09-18T08:07:25;22.10;99.90
13464;DHT22;6804;48.774;9.174;2023-09-18T08:09:55;22.10;99.90
13464;DHT22;6804;48.774;9.174;2023-09-18T08:12:23;22.20;99.90
13464;DHT22;6804;48.774;9.174;2023-09-18T08:14:56;22.20;99.90
13464;DHT22;6804;48.774;9.174;2023-09-18T08:17:25;22.20;99.90
13464;DHT22;6804;48.774;9.174;2023-09-18T08:19:54;22.20;99.90
13464;DHT22;6804;48.774;9.174;2023-09-18T08:22:23;22.20;99.90
13464;DHT22;6804;48.774;9.174;2023-09-18T08:24:51;22.20;99.90
13464;DHT22;6804;48.774;9.174;2023-09-18T08:27:24;22.20;99.90
13464;DHT22;6804;48.774;9.174;2023-09-18T08:29:55;22.20;99.90
13464;DHT22;6804;48.774;9.174;2023-09-18T08:32:26;22.10;99.90
13464;DHT22;6804;48.774;9.174;2023-09-18T08:34:56;22.10;99.90
13464;DHT22;6804;48.774;9.174;2023-09-18T08:37:25;22.10;99.90
13464;DHT22;6804;48.774;9.174;2023-09-18T08:39:56;22.10;99.90
13464;DHT22;6804;48.774;9.174;2023-09-18T08:42:31;22.00;99.90
13464;DHT22;6804;48.774;9.174;2023-09-18T08:45:08;21.90;99.90
13464;DHT22;6804;48.774;9.174;2023-09-18T08:47:41;21.90;99.90
13464;DHT22;6804;48.774;9.174;2023-09-18T08:50:10;21.80;99.90
13464;DHT22;6804;48.774;9.174;2023-09-18T08:52:39;21.80;99.90
13464;DHT22;6804;48.774;9.174;2023-09-18T08:55:08;21.80;99.90
13464;DHT22;6804;48.774;9.174;2023-09-18T08:57:37;21.70;99.90
13464;DHT22;6804;48.774;9.174;2023-09-18T09:00:14;21.60;99.90
13464;DHT22;6804;48.774;9.174;2023-09-18T09:02:44;21.60;99.90
13464;DHT22;6804;48.774;9.174;2023-09-18T09:05:14;21.50;99.90
13464;DHT22;6804;48.774;9.174;2023-09-18T09:07:43;21.50;99.90
13464;DHT22;6804;48.774;9.174;2023-09-18T09:10:13;21.50;99.90
13464;DHT22;6804;48.774;9.174;2023-09-18T09:12:49;21.50;99.90
13464;DHT22;6804;48.774;9.174;2023-09-18T09:15:23;21.50;99.90
13464;DHT22;6804;48.774;9.174;2023-09-18T09:18:07;21.50;99.90
13464;DHT22;6804;48.774;9.174;2023-09-18T09:20:35;21.50;99.90
13464;DHT22;6804;48.774;9.174;2023-09-18T09:23:09;21.50;99.90
13464;DHT22;6804;48.774;9.174;2023-09-18T09:25:40;21.50;99.90
13464;DHT22;6804;48.774;9.174;2023-09-18T09:28:10;21.40;99.90
13464;DHT22;6804;48.774;9.174;2023-09-18T09:30:39;21.40;99.90
13464;DHT22;6804;48.774;9.174;2023-09-18T09:33:10;21.40;99.90
13464;DHT22;6804;48.774;9.174;2023-09-18T09:35:45;21.30;99.90
13464;DHT22;6804;48.774;9.174;2023-09-18T09:38:13;21.30;99.90
13464;DHT22;6804;48.774;9.174;2023-09-18T09:40:42;21.30;99.90
13464;DHT22;6804;48.774;9.174;2023-09-18T09:43:13;21.20;99.90
13464;DHT22;6804;48.774;9.174;2023-09-18T09:45:47;21.20;99.90
13464;DHT22;6804;48.774;9.174;2023-09-18T09:48:17;21.30;99.90
13464;DHT22;6804;48.774;9.174;2023-09-18T09:50:48;21.30;99.90
13464;DHT22;6804;48.774;9.174;2023-09-18T09:53:16;21.30;99.90
13464;DHT22;6804;48.774;9.174;2023-09-18T09:55:45;21.40;99.90
13464;DHT22;6804;48.774;9.174;2023-09-18T09:58:26;21.30;99.90
13464;DHT22;6804;48.774;9.174;2023-09-18T10:01:02;21.30;99.90
13464;DHT22;6804;48.774;9.174;2023-09-18T10:03:38;21.30;99.90
13464;DHT22;6804;48.774;9.174;2023-09-18T10:06:09;21.40;99.90
13464;DHT22;6804;48.774;9.174;2023-09-18T10:08:40;21.40;99.90
13464;DHT22;6804;48.774;9.174;2023-09-18T10:11:09;21.50;99.90
13464;DHT22;6804;48.774;9.174;2023-09-18T10:13:46;21.40;99.90
13464;DHT22;6804;48.774;9.174;2023-09-18T10:16:19;21.20;99.90
13464;DHT22;6804;48.774;9.174;2023-09-18T10:19:00;21.30;99.90
13464;DHT22;6804;48.774;9.174;2023-09-18T10:21:41;21.30;99.90
13464;DHT22;6804;48.774;9.174;2023-09-18T10:24:19;21.30;99.90
13464;DHT22;6804;48.774;9.174;2023-09-18T10:26:55;21.30;99.90
13464;DHT22;6804;48.774;9.174;2023-09-18T10:29:25;21.30;99.90
13464;DHT22;6804;48.774;9.174;2023-09-18T10:31:57;21.30;99.90
13464;DHT22;6804;48.774;9.174;2023-09-18T10:34:28;21.40;99.90
13464;DHT22;6804;48.774;9.174;2023-09-18T10:37:00;21.40;99.90
13464;DHT22;6804;48.774;9.174;2023-09-18T10:39:31;21.40;99.90
13464;DHT22;6804;48.774;9.174;2023-09-18T10:42:07;21.40;99.90
13464;DHT22;6804;48.774;9.174;2023-09-18T10:44:38;21.40;99.90
13464;DHT22;6804;48.774;9.174;2023-09-18T10:47:11;21.40;99.90
13464;DHT22;6804;48.774;9.174;2023-09-18T10:49:45;21.40;99.90
13464;DHT22;6804;48.774;9.174;2023-09-18T10:52:14;21.40;99.90
13464;DHT22;6804;48.774;9.174;2023-09-18T10:55:04;21.40;99.90
13464;DHT22;6804;48.774;9.174;2023-09-18T10:57:34;21.40;99.90
13464;DHT22;6804;48.774;9.174;2023-09-18T11:00:08;21.40;99.90
13464;DHT22;6804;48.774;9.174;2023-09-18T11:02:45;21.30;99.90
13464;DHT22;6804;48.774;9.174;2023-09-18T11:05:14;21.30;99.90
13464;DHT22;6804;48.774;9.174;2023-09-18T11:07:44;21.30;99.90
13464;DHT22;6804;48.774;9.174;2023-09-18T11:10:29;21.30;99.90
13464;DHT22;6804;48.774;9.174;2023-09-18T11:13:09;21.30;99.90
13464;DHT22;6804;48.774;9.174;2023-09-18T11:15:40;21.30;99.90
13464;DHT22;6804;48.774;9.174;2023-09-18T11:18:10;21.30;99.90
13464;DHT22;6804;48.774;9.174;2023-09-18T11:20:39;21.30;99.90
13464;DHT22;6804;48.774;9.174;2023-09-18T11:23:18;21.30;99.90
13464;DHT22;6804;48.774;9.174;2023-09-18T11:25:50;21.30;99.90
13464;DHT22;6804;48.774;9.174;2023-09-18T11:28:24;21.30;99.90
13464;DHT22;6804;48.774;9.174;2023-09-18T11:31:02;21.30;99.90
13464;DHT22;6804;48.774;9.174;2023-09-18T11:33:34;21.30;99.90
13464;DHT22;6804;48.774;9.174;2023-09-18T11:36:08;21.30;99.90
13464;DHT22;6804;48.774;9.174;2023-09-18T11:38:53;21.20;99.90
13464;DHT22;6804;48.774;9.174;2023-09-18T11:41:23;21.20;99.90
13464;DHT22;6804;48.774;9.174;2023-09-18T11:43:53;21.30;99.90
13464;DHT22;6804;48.774;9.174;2023-09-18T11:46:47;21.20;99.90
13464;DHT22;6804;48.774;9.174;2023-09-18T11:49:42;21.30;99.90
13464;DHT22;6804;48.774;9.174;2023-09-18T11:52:17;21.40;99.90
13464;DHT22;6804;48.774;9.174;2023-09-18T11:54:46;21.40;99.90
13464;DHT22;6804;48.774;9.174;2023-09-18T11:57:21;21.40;99.90
13464;DHT22;6804;48.774;9.174;2023-09-18T11:59:52;21.40;99.90
13464;DHT22;6804;48.774;9.174;2023-09-18T12:02:28;21.50;99.90
13464;DHT22;6804;48.774;9.174;2023-09-18T12:05:10;21.50;99.90
13464;DHT22;6804;48.774;9.174;2023-09-18T12:07:39;21.50;99.90
13464;DHT22;6804;48.774;9.174;2023-09-18T12:10:11;21.50;99.90
13464;DHT22;6804;48.774;9.174;2023-09-18T12:12:42;21.40;99.90
13464;DHT22;6804;48.774;9.174;2023-09-18T12:15:12;21.40;99.90
13464;DHT22;6804;48.774;9.174;2023-09-18T12:17:41;21.50;99.90
13464;DHT22;6804;48.774;9.174;2023-09-18T12:20:17;21.50;99.90
13464;DHT22;6804;48.774;9.174;2023-09-18T12:22:51;21.60;99.90
13464;DHT22;6804;48.774;9.174;2023-09-18T12:25:19;21.60;99.90
13464;DHT22;6804;48.774;9.174;2023-09-18T12:27:53;21.60;99.90
13464;DHT22;6804;48.774;9.174;2023-09-18T12:30:21;21.60;99.90
13464;DHT22;6804;48.774;9.174;2023-09-18T12:32:52;21.60;99.90
13464;DHT22;6804;48.774;9.174;2023-09-18T12:35:23;21.60;99.90
13464;DHT22;6804;48.774;9.174;2023-09-18T12:37:57;21.60;99.90
13464;DHT22;6804;48.774;9.174;2023-09-18T12:40:33;21.70;99.90
13464;DHT22;6804;48.774;9.174;2023-09-18T12:43:03;21.70;99.90
13464;DHT22;6804;48.774;9.174;2023-09-18T12:45:34;21.80;99.90
13464;DHT22;6804;48.774;9.174;2023-09-18T12:48:03;21.80;99.90
13464;DHT22;6804;48.774;9.174;2023-09-18T12:50:32;21.90;99.90
13464;DHT22;6804;48.774;9.174;2023-09-18T12:53:08;22.10;99.90
13464;DHT22;6804;48.774;9.174;2023-09-18T12:55:54;22.10;99.90
13464;DHT22;6804;48.774;9.174;2023-09-18T12:58:30;22.20;99.90
13464;DHT22;6804;48.774;9.174;2023-09-18T13:00:58;22.40;99.90
13464;DHT22;6804;48.774;9.174;2023-09-18T13:03:27;22.40;99.90
13464;DHT22;6804;48.774;9.174;2023-09-18T13:06:14;22.50;99.90
13464;DHT22;6804;48.774;9.174;2023-09-18T13:08:44;22.60;99.90
13464;DHT22;6804;48.774;9.174;2023-09-18T13:11:17;22.60;99.90
13464;DHT22;6804;48.774;9.174;2023-09-18T13:13:57;22.70;99.90
13464;DHT22;6804;48.774;9.174;2023-09-18T13:16:31;22.70;99.90
13464;DHT22;6804;48.774;9.174;2023-09-18T13:19:04;22.80;99.90
13464;DHT22;6804;48.774;9.174;2023-09-18T13:21:35;22.80;99.90
13464;DHT22;6804;48.774;9.174;2023-09-18T13:24:06;22.90;99.90
13464;DHT22;6804;48.774;9.174;2023-09-18T13:26:33;23.00;99.90
13464;DHT22;6804;48.774;9.174;2023-09-18T13:29:01;23.00;99.90
13464;DHT22;6804;48.774;9.174;2023-09-18T13:31:32;23.00;99.90
13464;DHT22;6804;48.774;9.174;2023-09-18T13:34:02;23.00;99.90
13464;DHT22;6804;48.774;9.174;2023-09-18T13:36:31;23.10;99.90
13464;DHT22;6804;48.774;9.174;2023-09-18T13:39:04;23.10;99.90
13464;DHT22;6804;48.774;9.174;2023-09-18T13:41:32;23.20;99.90
13464;DHT22;6804;48.774;9.174;2023-09-18T13:44:02;23.30;99.90
13464;DHT22;6804;48.774;9.174;2023-09-18T13:46:32;23.40;99.90
13464;DHT22;6804;48.774;9.174;2023-09-18T13:49:03;23.50;99.90
13464;DHT22;6804;48.774;9.174;2023-09-18T13:51:33;23.50;99.90
13464;DHT22;6804;48.774;9.174;2023-09-18T13:54:13;23.40;99.90
13464;DHT22;6804;48.774;9.174;2023-09-18T13:56:42;23.40;99.90
13464;DHT22;6804;48.774;9.174;2023-09-18T13:59:12;23.40;99.90
13464;DHT22;6804;48.774;9.174;2023-09-18T14:01:40;23.40;99.90
13464;DHT22;6804;48.774;9.174;2023-09-18T14:04:10;23.40;99.90
13464;DHT22;6804;48.774;9.174;2023-09-18T14:06:44;23.40;99.90
13464;DHT22;6804;48.774;9.174;2023-09-18T14:09:14;23.40;99.90
13464;DHT22;6804;48.774;9.174;2023-09-18T14:11:45;23.40;99.90
13464;DHT22;6804;48.774;9.174;2023-09-18T14:14:14;23.50;99.90
13464;DHT22;6804;48.774;9.174;2023-09-18T14:16:43;23.50;99.90
13464;DHT22;6804;48.774;9.174;2023-09-18T14:19:14;23.40;99.90
13464;DHT22;6804;48.774;9.174;2023-09-18T14:21:42;23.40;99.90
13464;DHT22;6804;48.774;9.174;2023-09-18T14:24:13;23.40;99.90
13464;DHT22;6804;48.774;9.174;2023-09-18T14:26:42;23.50;99.90
13464;DHT22;6804;48.774;9.174;2023-09-18T14:29:15;23.50;99.90
13464;DHT22;6804;48.774;9.174;2023-09-18T14:31:43;23.50;99.90
13464;DHT22;6804;48.774;9.174;2023-09-18T14:34:13;23.50;99.90
13464;DHT22;6804;48.774;9.174;2023-09-18T14:36:42;23.50;99.90
13464;DHT22;6804;48.774;9.174;2023-09-18T14:39:15;23.60;99.90
13464;DHT22;6804;48.774;9.174;2023-09-18T14:41:43;23.50;99.90
13464;DHT22;6804;48.774;9.174;2023-09-18T14:44:13;23.50;99.90
13464;DHT22;6804;48.774;9.174;2023-09-18T14:46:41;23.60;99.90
13464;DHT22;6804;48.774;9.174;2023-09-18T14:49:14;23.70;99.90
13464;DHT22;6804;48.774;9.174;2023-09-18T14:51:43;23.60;99.90
13464;DHT22;6804;48.774;9.174;2023-09-18T14:54:14;23.70;99.90
13464;DHT22;6804;48.774;9.174;2023-09-18T14:56:43;23.80;99.90
13464;DHT22;6804;48.774;9.174;2023-09-18T14:59:13;23.80;99.90
13464;DHT22;6804;48.774;9.174;2023-09-18T15:01:45;23.90;99.90
13464;DHT22;6804;48.774;9.174;2023-09-18T15:04:16;23.90;99.90
13464;DHT22;6804;48.774;9.174;2023-09-18T15:06:47;23.80;99.90
13464;DHT22;6804;48.774;9.174;2023-09-18T15:09:17;23.80;99.90
13464;DHT22;6804;48.774;9.174;2023-09-18T15:11:46;23.70;99.90
13464;DHT22;6804;48.774;9.174;2023-09-18T15:14:15;23.70;99.90
13464;DHT22;6804;48.774;9.174;2023-09-18T15:16:46;23.60;99.90
13464;DHT22;6804;48.774;9.174;2023-09-18T15:19:16;23.60;99.90
13464;DHT22;6804;48.774;9.174;2023-09-18T15:21:45;23.50;99.90
13464;DHT22;6804;48.774;9.174;2023-09-18T15:24:17;23.40;99.90
13464;DHT22;6804;48.774;9.174;2023-09-18T15:26:44;23.40;99.90
13464;DHT22;6804;48.774;9.174;2023-09-18T15:29:31;23.40;99.90
13464;DHT22;6804;48.774;9.174;2023-09-18T15:32:02;23.40;99.90
13464;DHT22;6804;48.774;9.174;2023-09-18T15:34:31;23.40;99.90
13464;DHT22;6804;48.774;9.174;2023-09-18T15:37:04;23.50;99.90
13464;DHT22;6804;48.774;9.174;2023-09-18T15:39:36;23.50;99.90
13464;DHT22;6804;48.774;9.174;2023-09-18T15:42:06;23.50;99.90
13464;DHT22;6804;48.774;9.174;2023-09-18T15:44:39;23.50;99.90
13464;DHT22;6804;48.774;9.174;2023-09-18T15:47:07;23.50;99.90
13464;DHT22;6804;48.774;9.174;2023-09-18T15:49:37;23.50;99.90
13464;DHT22;6804;48.774;9.174;2023-09-18T15:52:06;23.50;99.90
13464;DHT22;6804;48.774;9.174;2023-09-18T15:54:36;23.50;99.90
13464;DHT22;6804;48.774;9.174;2023-09-18T15:57:04;23.50;99.90
13464;DHT22;6804;48.774;9.174;2023-09-18T15:59:33;23.40;99.90
13464;DHT22;6804;48.774;9.174;2023-09-18T16:02:07;23.40;99.90
13464;DHT22;6804;48.774;9.174;2023-09-18T16:04:35;23.40;99.90
13464;DHT22;6804;48.774;9.174;2023-09-18T16:07:06;23.40;99.90
13464;DHT22;6804;48.774;9.174;2023-09-18T16:09:40;23.30;99.90